Time;durP1;ratioP1;P1;durP2;ratioP2;P2;SDS_P1;SDS_P2;PMS_P1;PMS_P2;Temp;Humidity;BMP_temperature;BMP_pressure;BME280_temperature;BME280_humidity;BME280_pressure;Samples;Min_cycle;Max_cycle;Signal;HPM_P1;HPM_P2
2023/10/08 00:02:05;;;;;;;10.85;5.05;;;;;;;15.59;36.64;95350.78;5023249;28;20221;-78
2023/10/08 00:04:37;;;;;;;8.38;4.75;;;;;;;15.53;36.78;95340.84;5027567;28;20289;-79
2023/10/08 00:07:07;;;;;;;6.97;4.85;;;;;;;15.65;36.58;95350.06;5026423;28;20300;-79
2023/10/08 00:09:35;;;;;;;5.43;4.43;;;;;;;15.53;37.17;95346.16;5021612;28;20219;-78
2023/10/08 00:12:02;;;;;;;5.68;4.75;;;;;;;15.51;37.45;95353.47;5028329;28;20191;-78
2023/10/08 00:14:28;;;;;;;6.32;4.65;;;;;;;15.32;37.55;95344.13;5026880;28;20182;-78
2023/10/08 00:16:53;;;;;;;9.55;4.57;;;;;;;15.14;38.16;95341.72;5028751;28;20218;-79
2023/10/08 00:19:19;;;;;;;7.53;4.93;;;;;;;15.13;38.05;95332.09;5027831;28;20227;-78
2023/10/08 00:21:45;;;;;;;7.30;4.20;;;;;;;15.26;37.99;95324.41;5023207;28;20215;-79
2023/10/08 00:24:15;;;;;;;8.40;4.57;;;;;;;15.23;38.34;95332.72;5025288;28;20242;-79
2023/10/08 00:26:40;;;;;;;7.15;4.70;;;;;;;15.33;37.67;95329.88;5017225;28;20182;-78
2023/10/08 00:29:16;;;;;;;5.82;4.47;;;;;;;15.39;38.01;95329.16;5055987;28;20217;-78
2023/10/08 00:31:45;;;;;;;7.95;4.82;;;;;;;15.23;38.35;95335.38;5028679;28;20281;-78
2023/10/08 00:34:14;;;;;;;6.40;4.75;;;;;;;15.03;38.77;95336.78;5025950;28;20230;-78
2023/10/08 00:36:44;;;;;;;5.43;4.28;;;;;;;14.88;39.00;95323.44;5025906;28;20245;-79
2023/10/08 00:39:14;;;;;;;6.60;4.65;;;;;;;14.72;39.33;95319.00;5027634;28;20241;-79
2023/10/08 00:41:50;;;;;;;7.60;4.68;;;;;;;14.62;39.61;95339.53;5022968;28;20178;-79
2023/10/08 00:44:22;;;;;;;8.02;4.63;;;;;;;14.73;39.40;95336.56;5022905;28;20206;-79
2023/10/08 00:46:49;;;;;;;5.72;4.13;;;;;;;14.62;39.68;95328.94;5024341;28;20210;-79
2023/10/08 00:52:00;;;;;;;7.40;4.63;;;;;;;14.69;39.65;95322.00;5022732;28;20639;-79
2023/10/08 00:54:28;;;;;;;5.85;4.43;;;;;;;14.54;40.09;95312.13;5022147;28;20210;-79
2023/10/08 00:56:57;;;;;;;7.90;4.65;;;;;;;14.60;39.87;95307.16;5020115;28;20202;-78
2023/10/08 00:59:24;;;;;;;7.18;4.78;;;;;;;14.63;39.71;95307.63;5022416;28;20270;-79
2023/10/08 01:01:51;;;;;;;6.65;4.53;;;;;;;14.71;39.76;95310.25;5024477;28;20226;-79
2023/10/08 01:04:23;;;;;;;5.47;4.00;;;;;;;14.68;39.78;95315.06;5020967;28;20856;-79
2023/10/08 01:06:55;;;;;;;6.35;3.90;;;;;;;14.48;40.06;95314.56;5019821;28;20226;-80
2023/10/08 01:09:26;;;;;;;5.00;3.72;;;;;;;14.52;40.00;95316.75;5029295;28;20218;-79
2023/10/08 01:15:13;;;;;;;7.07;4.57;;;;;;;14.35;40.41;95315.06;5016665;28;20177;-78
2023/10/08 01:17:47;;;;;;;12.52;4.88;;;;;;;14.45;40.33;95312.25;5023056;28;20201;-79
2023/10/08 01:20:33;;;;;;;8.05;4.90;;;;;;;14.42;40.53;95318.72;5038551;28;20225;-79
2023/10/08 01:23:09;;;;;;;6.22;4.40;;;;;;;14.34;40.20;95308.16;5040054;28;20297;-79
2023/10/08 01:25:36;;;;;;;6.28;4.90;;;;;;;14.34;40.11;95318.72;5039370;28;20220;-79
2023/10/08 01:28:08;;;;;;;6.97;4.63;;;;;;;14.43;39.89;95317.72;5042869;28;20732;-79
2023/10/08 01:30:35;;;;;;;5.82;4.28;;;;;;;14.47;39.64;95310.28;5041645;28;20226;-79
2023/10/08 01:33:02;;;;;;;6.75;4.78;;;;;;;14.47;39.49;95313.75;5048009;28;20187;-78
2023/10/08 01:35:31;;;;;;;6.32;4.18;;;;;;;14.36;39.92;95315.94;5040409;28;20238;-78
2023/10/08 01:37:57;;;;;;;9.02;4.75;;;;;;;14.13;40.31;95322.69;5037678;28;20248;-78
2023/10/08 01:40:23;;;;;;;5.93;4.07;;;;;;;14.18;40.45;95311.63;5039275;28;20241;-79
2023/10/08 01:42:52;;;;;;;8.32;4.72;;;;;;;14.27;40.11;95312.44;5042981;28;20302;-79
2023/10/08 01:45:18;;;;;;;8.35;4.82;;;;;;;14.22;40.05;95320.06;5043204;28;20222;-79
2023/10/08 01:47:44;;;;;;;8.95;4.75;;;;;;;14.21;40.11;95316.59;5043181;28;20711;-79
2023/10/08 01:50:34;;;;;;;7.55;4.65;;;;;;;14.20;40.37;95319.41;5040519;28;20222;-80
2023/10/08 01:52:56;;;;;;;7.20;5.20;;;;;;;14.20;40.36;95320.22;5042345;28;20218;-80
2023/10/08 01:55:22;;;;;;;6.90;5.00;;;;;;;14.09;40.53;95317.94;5046739;28;20224;-80
2023/10/08 01:57:49;;;;;;;7.90;4.85;;;;;;;13.94;40.84;95311.66;5041112;28;20217;-80
2023/10/08 02:00:19;;;;;;;6.78;5.00;;;;;;;13.95;41.01;95319.41;5039768;28;20691;-79
2023/10/08 02:02:46;;;;;;;7.85;4.57;;;;;;;14.01;40.87;95323.22;5041636;28;20190;-78
2023/10/08 02:05:14;;;;;;;7.10;4.68;;;;;;;13.96;40.58;95322.88;5041458;28;20221;-79
2023/10/08 02:07:41;;;;;;;9.32;4.80;;;;;;;14.00;40.83;95321.56;5041930;28;20669;-78
2023/10/08 02:10:07;;;;;;;7.82;4.47;;;;;;;14.15;40.31;95317.25;5046415;28;20233;-80
2023/10/08 02:12:33;;;;;;;6.25;4.00;;;;;;;14.03;40.46;95314.13;5039255;28;20225;-79
2023/10/08 02:14:58;;;;;;;6.13;4.25;;;;;;;13.95;40.30;95308.00;5046761;28;20213;-79
2023/10/08 02:17:23;;;;;;;5.30;4.32;;;;;;;13.89;40.35;95317.41;5043572;28;20518;-79
2023/10/08 02:19:49;;;;;;;7.30;4.57;;;;;;;13.84;40.28;95307.34;5045105;28;20325;-80
2023/10/08 02:22:14;;;;;;;7.35;4.55;;;;;;;14.07;40.22;95311.97;5042306;28;20214;-80
2023/10/08 02:24:40;;;;;;;6.40;4.38;;;;;;;14.03;40.07;95308.84;5041669;28;20224;-80
2023/10/08 02:27:06;;;;;;;10.13;5.20;;;;;;;13.99;40.01;95302.22;5028376;28;20236;-80
2023/10/08 02:29:32;;;;;;;6.05;4.13;;;;;;;14.03;40.17;95298.28;5027241;28;20195;-80
2023/10/08 02:31:57;;;;;;;7.80;4.57;;;;;;;14.06;40.07;95307.66;5021603;28;20226;-79
2023/10/08 02:34:23;;;;;;;7.45;4.30;;;;;;;14.09;40.06;95297.59;5023113;28;20229;-78
2023/10/08 02:36:48;;;;;;;10.13;4.35;;;;;;;14.08;40.06;95298.56;5024277;28;20242;-78
2023/10/08 02:39:21;;;;;;;6.40;4.60;;;;;;;13.94;40.72;95298.44;5025566;28;20592;-78
2023/10/08 02:41:48;;;;;;;7.82;4.45;;;;;;;13.86;41.08;95293.97;5018937;28;21022;-79
2023/10/08 02:44:16;;;;;;;6.63;4.13;;;;;;;13.94;40.98;95291.31;5022031;28;20695;-78
2023/10/08 02:46:51;;;;;;;6.50;4.20;;;;;;;13.80;41.48;95289.34;5017631;28;20226;-78
2023/10/08 02:49:20;;;;;;;6.25;4.80;;;;;;;13.90;40.91;95284.72;5022427;28;20283;-79
2023/10/08 02:51:53;;;;;;;6.30;4.20;;;;;;;13.88;41.15;95295.44;5019075;28;20221;-79
2023/10/08 02:54:31;;;;;;;6.65;4.47;;;;;;;13.86;41.12;95296.59;5024357;28;20222;-78
2023/10/08 02:56:58;;;;;;;8.50;4.50;;;;;;;13.74;41.63;95295.25;5023502;28;20225;-78
2023/10/08 02:59:28;;;;;;;5.65;4.00;;;;;;;13.83;41.25;95294.31;5022974;28;20186;-78
2023/10/08 03:01:55;;;;;;;6.43;4.78;;;;;;;13.75;41.71;95294.28;5022088;28;20218;-79
2023/10/08 03:04:22;;;;;;;8.90;4.68;;;;;;;13.84;41.56;95309.16;5023919;28;20230;-78
2023/10/08 03:06:52;;;;;;;8.88;4.75;;;;;;;13.77;41.99;95306.34;5023664;28;20317;-78
2023/10/08 03:09:23;;;;;;;6.72;4.65;;;;;;;13.60;42.31;95308.13;5019959;28;20232;-79
2023/10/08 03:11:50;;;;;;;6.60;4.40;;;;;;;13.50;43.07;95296.06;5026158;28;20218;-77
2023/10/08 03:14:22;;;;;;;7.03;4.60;;;;;;;13.44;42.98;95297.53;5022340;28;20599;-78
2023/10/08 03:16:52;;;;;;;7.38;4.43;;;;;;;13.38;43.04;95299.03;5027149;28;20241;-80
2023/10/08 03:19:19;;;;;;;7.80;4.72;;;;;;;13.43;42.90;95304.66;5023430;28;20211;-78
2023/10/08 03:21:51;;;;;;;7.65;4.88;;;;;;;13.54;42.86;95295.59;5020992;28;20236;-78
2023/10/08 03:27:07;;;;;;;5.85;5.00;;;;;;;13.19;44.40;95296.66;5020463;28;20202;-79
2023/10/08 03:29:42;;;;;;;6.60;4.88;;;;;;;13.01;45.11;95288.81;5022140;28;20179;-80
2023/10/08 03:32:13;;;;;;;7.00;4.55;;;;;;;13.17;45.13;95290.69;5021366;28;20241;-80
2023/10/08 03:34:42;;;;;;;6.47;4.72;;;;;;;13.00;45.20;95293.28;5027677;28;20706;-80
2023/10/08 03:37:08;;;;;;;7.45;4.78;;;;;;;13.12;44.92;95287.69;5022735;28;20218;-78
2023/10/08 03:39:52;;;;;;;6.90;5.22;;;;;;;12.86;46.26;95285.16;5025495;28;20218;-78
2023/10/08 03:42:25;;;;;;;7.63;4.80;;;;;;;12.94;46.09;95286.00;5024627;28;20222;-77
2023/10/08 03:44:51;;;;;;;8.88;5.25;;;;;;;13.01;45.56;95279.09;5027480;28;20190;-76
2023/10/08 03:47:22;;;;;;;9.90;5.03;;;;;;;12.91;45.16;95281.06;5027669;28;20207;-77
2023/10/08 03:49:51;;;;;;;10.95;5.00;;;;;;;13.02;45.15;95275.47;5023198;28;20219;-77
2023/10/08 03:52:30;;;;;;;7.13;4.32;;;;;;;13.08;44.89;95276.66;5022280;28;20709;-77
2023/10/08 03:55:13;;;;;;;14.80;5.20;;;;;;;13.00;45.12;95272.16;5028342;28;20233;-76
2023/10/08 03:57:41;;;;;;;8.57;4.75;;;;;;;12.98;45.29;95271.50;5026514;28;20232;-77
2023/10/08 04:00:14;;;;;;;7.78;4.70;;;;;;;12.98;44.83;95279.41;5024068;28;20299;-77
2023/10/08 04:02:40;;;;;;;6.78;4.43;;;;;;;13.05;44.32;95269.06;5026212;28;20715;-76
2023/10/08 04:05:19;;;;;;;7.30;4.18;;;;;;;13.02;44.11;95259.63;5016851;28;20218;-78
2023/10/08 04:13:09;;;;;;;6.05;4.10;;;;;;;13.08;42.80;95260.81;5031345;28;20213;-80
2023/10/08 04:15:40;;;;;;;9.25;4.32;;;;;;;13.06;42.79;95249.56;5019909;28;20222;-80
2023/10/08 04:18:09;;;;;;;5.93;4.60;;;;;;;12.89;43.41;95279.56;5025714;28;20178;-78
2023/10/08 04:20:38;;;;;;;5.43;4.18;;;;;;;12.93;43.27;95270.31;5021751;28;20190;-78
2023/10/08 04:23:20;;;;;;;6.47;4.00;;;;;;;12.85;43.85;95267.66;5032001;28;20218;-78
2023/10/08 04:25:53;;;;;;;8.38;4.68;;;;;;;12.89;43.98;95263.72;5020311;28;20569;-79
2023/10/08 04:28:20;;;;;;;5.15;4.07;;;;;;;12.85;43.80;95260.56;5026014;28;20226;-78
2023/10/08 04:30:47;;;;;;;7.43;4.28;;;;;;;12.83;44.12;95259.06;5023639;28;20713;-79
2023/10/08 04:33:14;;;;;;;7.85;4.50;;;;;;;12.84;44.27;95263.38;5021723;28;20325;-78
2023/10/08 04:35:48;;;;;;;7.47;3.88;;;;;;;12.73;44.55;95265.31;5024721;28;20225;-77
2023/10/08 04:38:21;;;;;;;7.82;4.35;;;;;;;12.90;44.31;95266.19;5024160;28;20210;-79
2023/10/08 04:40:51;;;;;;;6.95;4.55;;;;;;;12.88;44.18;95262.88;5021792;28;20699;-79
2023/10/08 04:43:24;;;;;;;6.90;4.20;;;;;;;12.80;44.48;95263.69;5026124;28;20224;-78
2023/10/08 04:45:51;;;;;;;6.88;4.72;;;;;;;12.91;44.34;95267.84;5026263;28;20218;-77
2023/10/08 04:48:20;;;;;;;9.30;4.78;;;;;;;12.56;45.17;95269.69;5029534;28;20706;-76
2023/10/08 04:50:58;;;;;;;6.50;4.22;;;;;;;12.63;44.87;95280.44;5023126;28;20189;-75
2023/10/08 04:53:47;;;;;;;6.13;4.28;;;;;;;12.72;44.81;95278.66;5015567;28;20224;-75
2023/10/08 04:56:16;;;;;;;6.28;4.28;;;;;;;12.85;44.82;95279.03;5022393;28;20214;-79
2023/10/08 04:58:46;;;;;;;9.40;4.95;;;;;;;12.65;45.33;95267.09;5021403;28;20226;-79
2023/10/08 05:01:21;;;;;;;8.43;5.18;;;;;;;12.56;45.56;95274.13;5027990;28;20236;-80
2023/10/08 05:30:31;;;;;;;10.20;5.68;;;;;;;13.23;44.78;95285.59;4950194;28;20224;-80
2023/10/08 06:10:56;;;;;;;9.65;5.05;;;;;;;13.88;42.59;95308.66;5018217;28;20222;-75
2023/10/08 06:13:16;;;;;;;6.78;5.60;;;;;;;13.99;42.24;95299.59;5019847;28;20226;-76
2023/10/08 06:15:47;;;;;;;7.63;5.25;;;;;;;13.82;42.40;95289.97;5018032;28;20245;-76
2023/10/08 06:18:18;;;;;;;7.15;5.30;;;;;;;13.92;42.44;95295.13;5023773;28;20221;-74
2023/10/08 06:20:43;;;;;;;7.18;4.88;;;;;;;14.04;42.21;95296.44;5021177;28;20185;-77
2023/10/08 06:23:17;;;;;;;9.85;5.20;;;;;;;14.08;42.38;95290.63;5020159;28;20214;-76
2023/10/08 06:25:45;;;;;;;9.02;5.28;;;;;;;14.08;42.55;95287.19;5020892;28;20223;-76
2023/10/08 06:28:15;;;;;;;8.35;5.18;;;;;;;14.24;42.16;95287.16;5017336;28;20230;-78
2023/10/08 06:30:41;;;;;;;8.93;4.97;;;;;;;14.26;42.23;95289.66;5015245;28;20321;-78
2023/10/08 06:33:10;;;;;;;8.77;4.82;;;;;;;14.43;41.95;95304.47;5018241;28;20320;-77
2023/10/08 06:35:36;;;;;;;8.10;5.63;;;;;;;14.61;42.26;95303.50;5021711;28;20183;-79
2023/10/08 06:38:07;;;;;;;7.65;5.07;;;;;;;14.65;42.40;95304.78;5015366;28;20249;-79
2023/10/08 06:43:14;;;;;;;10.30;5.63;;;;;;;14.76;41.78;95283.28;5017456;28;20506;-76
2023/10/08 06:45:42;;;;;;;12.07;6.00;;;;;;;14.91;41.49;95283.38;5021985;28;20553;-78
2023/10/08 06:48:08;;;;;;;7.40;5.00;;;;;;;14.98;41.35;95279.03;5012911;28;20261;-76
2023/10/08 06:50:36;;;;;;;9.93;5.55;;;;;;;15.13;41.25;95282.63;5020643;28;20186;-79
2023/10/08 06:53:07;;;;;;;10.45;5.85;;;;;;;15.20;40.79;95280.09;5022642;28;20214;-78
2023/10/08 06:55:37;;;;;;;13.07;5.97;;;;;;;15.24;41.00;95270.81;5020368;28;20313;-75
2023/10/08 06:58:08;;;;;;;10.13;6.05;;;;;;;15.36;40.33;95264.09;5019833;28;20282;-80
2023/10/08 07:00:40;;;;;;;8.40;5.07;;;;;;;15.44;39.90;95284.41;5024213;28;20222;-77
2023/10/08 07:03:15;;;;;;;11.63;5.22;;;;;;;15.44;39.92;95279.94;5025027;28;20237;-76
2023/10/08 07:05:54;;;;;;;7.35;5.30;;;;;;;15.63;39.82;95277.84;5023623;28;20188;-79
2023/10/08 07:08:26;;;;;;;7.97;5.80;;;;;;;15.72;39.59;95274.16;5028975;28;20227;-79
2023/10/08 07:10:53;;;;;;;10.18;5.40;;;;;;;15.90;39.57;95279.16;5022880;28;20221;-72
2023/10/08 07:13:24;;;;;;;10.30;5.90;;;;;;;15.90;39.99;95275.69;5023096;28;20244;-73
2023/10/08 07:15:50;;;;;;;11.18;7.25;;;;;;;15.91;39.38;95278.16;5020880;28;20211;-74
2023/10/08 07:18:24;;;;;;;11.05;6.15;;;;;;;15.96;39.36;95261.69;5021224;28;21031;-74
2023/10/08 07:20:53;;;;;;;9.30;6.18;;;;;;;16.07;39.01;95278.03;5023656;28;20195;-74
2023/10/08 07:23:27;;;;;;;10.50;6.70;;;;;;;16.19;39.01;95267.78;5025709;28;20193;-73
2023/10/08 07:26:17;;;;;;;13.32;6.60;;;;;;;16.34;38.98;95261.72;5025514;28;20233;-74
2023/10/08 07:28:45;;;;;;;13.45;7.40;;;;;;;16.45;38.77;95255.94;5025512;28;20218;-73
2023/10/08 07:31:17;;;;;;;10.13;7.00;;;;;;;16.56;38.41;95258.13;5023131;28;20635;-74
2023/10/08 07:33:56;;;;;;;11.60;6.68;;;;;;;16.67;38.20;95248.91;5026289;28;20222;-74
2023/10/08 07:36:31;;;;;;;11.52;6.43;;;;;;;16.74;38.33;95247.97;5021687;28;20556;-75
2023/10/08 07:38:56;;;;;;;8.90;6.85;;;;;;;16.88;38.25;95251.66;5026712;28;20217;-72
2023/10/08 07:41:22;;;;;;;9.30;6.72;;;;;;;16.95;37.89;95241.13;5024967;28;20207;-72
2023/10/08 07:44:07;;;;;;;10.43;7.13;;;;;;;17.02;37.75;95230.56;5018727;28;20222;-73
2023/10/08 07:46:33;;;;;;;10.43;6.43;;;;;;;17.10;37.99;95236.59;5022909;28;20230;-72
2023/10/08 07:48:58;;;;;;;13.25;7.43;;;;;;;17.13;37.73;95228.28;5024635;28;20214;-72
2023/10/08 07:51:24;;;;;;;12.23;6.60;;;;;;;17.19;38.85;95216.88;5025166;28;20236;-74
2023/10/08 07:53:55;;;;;;;14.13;7.40;;;;;;;17.37;38.52;95227.09;5022797;28;20217;-71
2023/10/08 07:56:25;;;;;;;9.15;7.32;;;;;;;17.44;38.48;95218.38;5019426;28;20209;-74
2023/10/08 07:58:57;;;;;;;11.75;7.25;;;;;;;17.38;39.53;95218.09;5024900;28;20230;-79
2023/10/08 08:01:24;;;;;;;11.20;7.15;;;;;;;17.47;38.68;95218.81;5026334;28;20221;-79
2023/10/08 08:03:50;;;;;;;10.07;7.00;;;;;;;17.52;38.09;95220.91;5025620;28;20293;-77
2023/10/08 08:06:16;;;;;;;12.57;6.57;;;;;;;17.60;38.67;95221.59;5020589;28;20218;-77
2023/10/08 08:08:44;;;;;;;9.73;6.57;;;;;;;17.57;36.75;95221.97;5017556;28;20193;-78
2023/10/08 08:11:12;;;;;;;9.38;6.55;;;;;;;17.63;38.11;95221.19;5017324;28;20219;-77
2023/10/08 08:13:42;;;;;;;9.50;7.03;;;;;;;17.75;37.63;95218.03;5022157;28;20234;-80
2023/10/08 08:16:16;;;;;;;10.13;7.47;;;;;;;17.84;38.75;95198.31;5022317;28;20304;-77
2023/10/08 08:18:51;;;;;;;8.43;6.40;;;;;;;17.89;36.82;95198.56;5025875;28;20217;-79
2023/10/08 08:21:19;;;;;;;15.30;6.22;;;;;;;17.89;37.06;95203.88;5020946;28;20214;-80
2023/10/08 08:23:48;;;;;;;12.98;6.47;;;;;;;17.99;37.78;95192.88;5025551;28;20189;-78
2023/10/08 08:26:28;;;;;;;11.60;6.78;;;;;;;18.22;38.48;95200.63;5023294;28;20329;-79
2023/10/08 08:28:56;;;;;;;9.30;4.90;;;;;;;18.19;34.49;95193.03;5018439;28;20221;-80
2023/10/08 08:31:22;;;;;;;6.65;4.20;;;;;;;18.38;31.07;95189.66;5019283;28;20233;-80
2023/10/08 08:33:59;;;;;;;7.22;3.70;;;;;;;18.56;30.89;95175.03;5022003;28;20317;-79
2023/10/08 08:36:26;;;;;;;4.53;3.83;;;;;;;18.78;31.14;95178.44;5021826;28;20226;-80
2023/10/08 08:38:52;;;;;;;6.50;3.90;;;;;;;19.00;30.19;95173.81;5018927;28;20209;-80
2023/10/08 08:41:20;;;;;;;5.97;3.60;;;;;;;19.43;28.64;95168.97;5025457;28;20760;-79
2023/10/08 08:43:56;;;;;;;4.82;3.58;;;;;;;19.43;29.35;95174.31;5022063;28;20218;-79
2023/10/08 08:46:37;;;;;;;7.65;3.80;;;;;;;19.54;28.83;95179.06;5024531;28;20218;-79
2023/10/08 08:49:07;;;;;;;7.95;4.28;;;;;;;19.60;27.85;95164.09;5017021;28;20744;-78
2023/10/08 08:51:34;;;;;;;4.78;3.22;;;;;;;19.70;28.63;95161.88;5017889;28;20310;-78
2023/10/08 08:54:05;;;;;;;6.45;3.80;;;;;;;19.88;28.61;95165.75;5023731;28;20234;-79
2023/10/08 08:56:36;;;;;;;5.40;3.90;;;;;;;19.93;27.65;95164.13;5017139;28;20189;-79
2023/10/08 08:59:04;;;;;;;5.18;3.75;;;;;;;20.12;27.92;95164.31;5023789;28;20182;-79
2023/10/08 09:01:30;;;;;;;5.30;3.85;;;;;;;20.14;27.42;95172.94;5022273;28;20263;-78
2023/10/08 09:04:05;;;;;;;7.20;4.13;;;;;;;20.27;28.07;95167.59;5021828;28;20245;-76
2023/10/08 09:06:40;;;;;;;6.57;4.05;;;;;;;20.38;28.11;95166.94;5023409;28;20312;-77
2023/10/08 09:09:22;;;;;;;7.00;3.88;;;;;;;20.49;27.31;95166.28;5022072;28;20686;-75
2023/10/08 09:11:55;;;;;;;5.03;4.15;;;;;;;20.37;27.58;95162.63;5021883;28;20190;-79
2023/10/08 09:14:22;;;;;;;6.85;4.30;;;;;;;20.44;27.31;95162.59;5020309;28;20186;-75
2023/10/08 09:16:48;;;;;;;5.07;3.90;;;;;;;20.41;29.20;95158.50;5020867;28;20219;-72
2023/10/08 09:19:18;;;;;;;5.05;3.78;;;;;;;20.39;27.96;95146.38;5025062;28;20229;-73
2023/10/08 09:21:59;;;;;;;6.82;4.18;;;;;;;20.42;28.27;95162.00;5024329;28;20822;-79
2023/10/08 09:24:25;;;;;;;7.05;4.18;;;;;;;20.31;28.35;95146.63;5014038;28;20222;-76
2023/10/08 09:26:52;;;;;;;5.43;4.28;;;;;;;20.32;29.01;95146.41;5015315;28;20314;-71
2023/10/08 09:29:18;;;;;;;4.50;3.92;;;;;;;20.45;28.01;95130.34;5022503;28;20202;-78
2023/10/08 09:31:55;;;;;;;6.30;3.83;;;;;;;20.57;27.20;95137.75;5017878;28;20230;-78
2023/10/08 09:34:22;;;;;;;6.65;3.95;;;;;;;20.63;27.26;95137.72;5018305;28;20265;-77
2023/10/08 09:36:48;;;;;;;5.28;4.03;;;;;;;20.68;27.52;95135.22;5019032;28;20221;-76
2023/10/08 09:39:23;;;;;;;8.68;4.28;;;;;;;20.80;26.73;95145.28;5019287;28;20495;-79
2023/10/08 09:41:56;;;;;;;7.55;4.07;;;;;;;20.98;26.65;95139.22;5025708;28;20213;-82
2023/10/08 09:44:24;;;;;;;5.97;3.60;;;;;;;21.03;26.01;95137.53;5023203;28;20189;-80
2023/10/08 09:46:55;;;;;;;5.72;4.53;;;;;;;21.08;26.19;95136.91;5019425;28;20234;-80
2023/10/08 09:49:53;;;;;;;8.13;4.05;;;;;;;21.25;26.27;95135.38;5016420;28;20221;-77
2023/10/08 09:52:29;;;;;;;7.82;4.10;;;;;;;21.41;26.18;95112.66;5005931;28;20218;-79
2023/10/08 09:55:03;;;;;;;7.55;3.97;;;;;;;21.48;26.40;95128.66;5013816;28;20257;-79
2023/10/08 09:57:29;;;;;;;5.85;4.40;;;;;;;21.47;25.69;95127.03;4989022;28;20221;-78
2023/10/08 09:59:57;;;;;;;5.85;4.53;;;;;;;21.37;25.73;95122.13;4989043;28;20273;-76
2023/10/08 10:02:26;;;;;;;7.07;4.07;;;;;;;21.55;25.85;95118.75;4987993;28;20727;-78
2023/10/08 10:04:52;;;;;;;5.20;3.70;;;;;;;21.60;26.30;95113.56;4991130;28;20330;-77
2023/10/08 10:07:19;;;;;;;6.03;4.35;;;;;;;21.74;25.44;95115.06;4986597;28;20603;-76
2023/10/08 10:09:49;;;;;;;7.93;3.58;;;;;;;21.72;25.32;95111.78;4989648;28;20241;-75
2023/10/08 10:12:25;;;;;;;8.05;3.78;;;;;;;21.63;25.09;95109.63;4988147;28;20242;-75
2023/10/08 10:14:55;;;;;;;7.57;3.65;;;;;;;21.54;25.58;95115.25;4988544;28;20254;-75
2023/10/08 10:17:22;;;;;;;4.90;3.88;;;;;;;21.54;25.83;95117.94;4990527;28;20202;-75
2023/10/08 10:19:59;;;;;;;5.97;3.78;;;;;;;21.52;25.80;95090.56;4989159;28;20273;-75
2023/10/08 10:22:29;;;;;;;5.10;3.80;;;;;;;21.70;25.58;95113.84;4988145;28;20218;-75
2023/10/08 10:24:54;;;;;;;5.35;3.63;;;;;;;21.76;25.32;95094.28;4989841;28;20226;-75
2023/10/08 10:27:21;;;;;;;5.43;3.50;;;;;;;21.86;25.42;95091.06;4992534;28;20234;-75
2023/10/08 10:29:48;;;;;;;7.43;3.78;;;;;;;21.92;25.59;95086.69;5030635;28;20204;-76
2023/10/08 10:32:17;;;;;;;4.45;3.50;;;;;;;21.99;25.61;95072.22;5040384;28;20586;-75
2023/10/08 10:34:44;;;;;;;12.82;3.95;;;;;;;22.28;25.01;95074.44;5038640;28;20717;-75
2023/10/08 10:37:19;;;;;;;6.80;3.78;;;;;;;22.35;25.66;95067.16;5045710;28;20285;-75
2023/10/08 10:40:00;;;;;;;9.45;3.53;;;;;;;22.53;24.86;95066.31;5038402;28;20223;-75
2023/10/08 10:42:28;;;;;;;5.82;3.60;;;;;;;22.71;24.61;95060.91;5039585;28;20213;-76
2023/10/08 10:44:56;;;;;;;4.38;3.72;;;;;;;22.79;25.11;95062.47;5038663;28;20210;-76
2023/10/08 10:52:51;;;;;;;7.10;3.80;;;;;;;23.43;24.76;95058.25;5037259;28;20259;-75
2023/10/08 10:55:20;;;;;;;7.25;3.50;;;;;;;23.49;24.75;95057.31;5036952;28;20283;-75
2023/10/08 10:57:55;;;;;;;6.47;3.60;;;;;;;23.68;24.76;95058.06;5037423;28;20222;-76
2023/10/08 11:00:57;;;;;;;5.50;3.00;;;;;;;23.60;24.81;95047.66;5046060;28;20263;-76
2023/10/08 11:03:17;;;;;;;6.20;4.00;;;;;;;23.61;24.64;95052.00;5038217;28;20752;-76
2023/10/08 11:05:51;;;;;;;6.47;3.45;;;;;;;23.57;24.65;95042.75;5036821;28;20218;-76
2023/10/08 11:08:18;;;;;;;6.07;4.07;;;;;;;23.58;24.51;95057.81;5046298;28;20209;-76
2023/10/08 11:13:40;;;;;;;5.88;3.95;;;;;;;23.78;24.55;95047.56;5007981;28;20227;-77
2023/10/08 11:16:08;;;;;;;6.07;3.42;;;;;;;23.92;24.58;95039.28;4991638;28;20272;-77
2023/10/08 11:18:34;;;;;;;11.50;3.90;;;;;;;24.07;24.55;95036.94;4995833;28;20229;-77
2023/10/08 11:21:16;;;;;;;6.25;3.50;;;;;;;24.30;24.11;95041.47;5008702;28;20235;-76
2023/10/08 11:23:52;;;;;;;5.13;3.83;;;;;;;24.59;24.03;95025.41;4987481;28;20723;-77
2023/10/08 11:26:19;;;;;;;7.15;3.63;;;;;;;24.80;24.01;95030.13;5012517;28;20185;-77
2023/10/08 11:28:47;;;;;;;8.07;3.58;;;;;;;24.95;23.40;95026.91;4994321;28;20231;-78
2023/10/08 11:31:20;;;;;;;11.80;3.35;;;;;;;25.00;23.36;95024.31;5004707;28;20223;-77
2023/10/08 11:33:54;;;;;;;4.80;3.42;;;;;;;24.97;24.15;95019.41;4990901;28;20219;-77
2023/10/08 11:36:27;;;;;;;10.63;3.75;;;;;;;24.93;23.76;95002.13;5007584;28;20273;-76
2023/10/08 11:38:56;;;;;;;7.88;3.35;;;;;;;24.78;23.66;95029.56;4994425;28;20456;-77
2023/10/08 11:41:21;;;;;;;11.35;3.83;;;;;;;24.60;24.29;95013.63;4991835;28;20674;-78
2023/10/08 11:43:58;;;;;;;5.07;3.15;;;;;;;24.55;24.86;95011.63;5008489;28;20222;-74
2023/10/08 11:46:38;;;;;;;6.15;3.33;;;;;;;24.56;24.29;95018.63;4982820;28;20628;-81
2023/10/08 11:49:06;;;;;;;8.73;3.53;;;;;;;24.59;24.42;95025.41;5013620;28;20298;-76
2023/10/08 11:51:35;;;;;;;10.02;4.20;;;;;;;24.45;24.67;95013.31;5039227;28;20205;-79
2023/10/08 11:54:11;;;;;;;12.35;4.10;;;;;;;24.44;24.34;95020.56;5054788;28;20256;-77
2023/10/08 11:56:38;;;;;;;10.00;3.92;;;;;;;24.42;24.57;95019.94;5041592;28;20182;-75
2023/10/08 11:59:08;;;;;;;7.95;4.15;;;;;;;24.34;24.67;95023.00;5045644;28;20244;-73
2023/10/08 12:01:41;;;;;;;8.55;3.80;;;;;;;23.94;25.13;94999.59;5040316;28;20232;-74
2023/10/08 12:04:12;;;;;;;10.35;3.60;;;;;;;23.82;25.39;95007.66;5046029;28;20233;-75
2023/10/08 12:06:46;;;;;;;22.02;4.30;;;;;;;23.91;25.27;95010.81;5040159;28;20296;-74
2023/10/08 12:09:15;;;;;;;9.80;4.10;;;;;;;23.98;25.27;95019.56;5044343;28;20232;-75
2023/10/08 12:11:42;;;;;;;13.40;4.15;;;;;;;24.13;25.09;95009.13;5041389;28;20213;-75
2023/10/08 12:14:08;;;;;;;6.20;4.18;;;;;;;24.47;25.00;95012.00;5039456;28;20186;-75
2023/10/08 12:16:38;;;;;;;8.65;4.20;;;;;;;24.82;24.56;94997.63;5039652;28;20225;-76
2023/10/08 12:19:15;;;;;;;6.55;3.80;;;;;;;25.25;24.09;95007.00;5045416;28;20221;-80
2023/10/08 12:21:41;;;;;;;6.93;3.50;;;;;;;26.01;23.02;94990.38;5036035;28;20221;-79
2023/10/08 12:24:10;;;;;;;6.68;3.65;;;;;;;26.68;22.08;94995.56;5039688;28;20670;-76
2023/10/08 12:26:36;;;;;;;8.25;4.22;;;;;;;27.82;20.73;95017.94;5042692;28;20291;-77
2023/10/08 12:29:02;;;;;;;8.30;4.13;;;;;;;28.43;20.46;95003.16;5038839;28;20225;-77
2023/10/08 12:31:28;;;;;;;10.90;5.45;;;;;;;29.50;18.99;95016.16;5040624;28;20821;-79
2023/10/08 12:33:56;;;;;;;12.10;5.50;;;;;;;30.86;17.68;95013.47;5042958;28;20217;-78
2023/10/08 12:36:32;;;;;;;14.23;4.55;;;;;;;32.39;16.41;95008.72;5044029;28;20237;-74
2023/10/08 12:38:58;;;;;;;9.40;4.43;;;;;;;31.70;16.61;95007.19;5043498;28;20479;-77
2023/10/08 12:41:26;;;;;;;8.48;4.32;;;;;;;29.63;18.61;95005.59;5040866;28;20197;-76
2023/10/08 12:43:52;;;;;;;11.60;4.55;;;;;;;28.13;20.40;95004.63;5042104;28;20253;-75
2023/10/08 12:46:23;;;;;;;11.80;4.93;;;;;;;28.15;20.34;95000.59;5039611;28;20218;-77
2023/10/08 12:48:52;;;;;;;7.55;4.95;;;;;;;29.22;19.32;95010.19;5042295;28;20224;-76
2023/10/08 12:51:18;;;;;;;8.32;4.55;;;;;;;30.81;17.71;95007.25;5037487;28;20218;-75
2023/10/08 12:54:06;;;;;;;9.27;4.65;;;;;;;31.25;17.22;94990.13;5040924;28;20290;-75
2023/10/08 12:56:48;;;;;;;5.95;3.80;;;;;;;31.19;17.33;94995.63;5036679;28;20669;-70
2023/10/08 12:59:23;;;;;;;6.82;3.92;;;;;;;30.55;17.98;94986.47;5046014;28;20190;-74
2023/10/08 13:01:54;;;;;;;7.38;3.97;;;;;;;30.01;18.34;94994.47;5043440;28;20221;-74
2023/10/08 13:04:27;;;;;;;8.35;4.05;;;;;;;29.55;18.83;94994.50;5039976;28;20304;-75
2023/10/08 13:06:57;;;;;;;9.60;5.05;;;;;;;29.12;19.27;95000.16;5041843;28;20224;-71
2023/10/08 13:09:23;;;;;;;10.93;5.88;;;;;;;30.30;18.32;94990.06;5036870;28;20606;-68
2023/10/08 13:11:48;;;;;;;10.30;6.13;;;;;;;32.62;16.00;94989.97;5040231;28;20189;-75
2023/10/08 13:14:13;;;;;;;12.13;6.13;;;;;;;34.93;13.86;94985.00;5045252;28;20212;-75
2023/10/08 13:16:39;;;;;;;12.18;6.10;;;;;;;36.52;12.81;94989.34;5040093;28;20210;-75